Time;durP1;ratioP1;P1;durP2;ratioP2;P2;SDS_P1;SDS_P2;PMS_P1;PMS_P2;Temp;Humidity;BMP_temperature;BMP_pressure;BME280_temperature;BME280_humidity;BME280_pressure;Samples;Min_cycle;Max_cycle;Signal;HPM_P1;HPM_P2
2022/08/19 00:01:37;;;;;;;15.55;10.65;;;15.20;99.90;;;;;;7400125;19;20010;-81
2022/08/19 00:04:08;;;;;;;12.07;10.82;;;15.20;99.90;;;;;;7398456;19;20349;-81
2022/08/19 00:06:35;;;;;;;12.52;11.05;;;15.10;99.90;;;;;;7400341;19;20014;-80
2022/08/19 00:09:08;;;;;;;17.45;11.30;;;15.10;99.90;;;;;;7399840;19;20014;-80
2022/08/19 00:11:36;;;;;;;14.55;11.10;;;15.10;99.90;;;;;;7399808;19;20011;-81
2022/08/19 00:14:02;;;;;;;13.90;11.50;;;15.10;99.90;;;;;;7398892;19;20042;-80
2022/08/19 00:16:28;;;;;;;17.35;13.00;;;15.10;99.90;;;;;;7397880;19;20010;-80
2022/08/19 00:18:57;;;;;;;17.13;13.40;;;15.10;99.90;;;;;;7397891;19;20010;-80
2022/08/19 00:21:26;;;;;;;17.30;14.05;;;15.10;99.90;;;;;;7400747;19;20023;-81
2022/08/19 00:23:53;;;;;;;15.48;13.35;;;15.10;99.90;;;;;;7399526;19;20362;-80
2022/08/19 00:26:20;;;;;;;17.10;15.30;;;15.20;99.90;;;;;;7398434;19;20040;-81
2022/08/19 00:28:46;;;;;;;18.60;14.80;;;15.20;99.90;;;;;;7395297;19;20017;-80
2022/08/19 00:31:13;;;;;;;21.75;15.35;;;15.10;99.90;;;;;;7398214;19;20010;-80
2022/08/19 00:33:39;;;;;;;17.90;15.20;;;15.10;99.90;;;;;;7397520;19;20110;-80
2022/08/19 00:36:07;;;;;;;17.45;15.18;;;15.10;99.90;;;;;;7398671;19;20010;-81
2022/08/19 00:38:35;;;;;;;16.00;13.45;;;15.10;99.90;;;;;;7397402;19;20018;-80
2022/08/19 00:41:07;;;;;;;;;;;15.10;99.90;;;;;;7398466;19;20023;-81
2022/08/19 00:43:33;;;;;;;15.68;14.00;;;15.10;99.90;;;;;;7399345;19;19915;-80
2022/08/19 00:45:59;;;;;;;18.50;14.70;;;15.10;99.90;;;;;;7399025;19;20019;-80
2022/08/19 00:48:25;;;;;;;17.00;15.20;;;15.00;99.90;;;;;;7399231;19;20035;-80
2022/08/19 00:50:53;;;;;;;19.92;15.30;;;15.00;99.90;;;;;;7396517;19;20345;-80
2022/08/19 00:53:22;;;;;;;20.55;16.60;;;14.90;99.90;;;;;;7398483;19;20017;-80
2022/08/19 00:55:52;;;;;;;19.83;14.68;;;14.90;99.90;;;;;;7393730;19;20067;-80
2022/08/19 00:58:20;;;;;;;20.38;15.93;;;14.90;99.90;;;;;;7396769;19;20011;-80
2022/08/19 01:00:48;;;;;;;19.95;15.88;;;14.90;99.90;;;;;;7398329;19;20418;-80
2022/08/19 01:03:18;;;;;;;19.38;15.70;;;14.90;99.90;;;;;;7398068;19;20010;-80
2022/08/19 01:05:45;;;;;;;19.90;15.88;;;14.90;99.90;;;;;;7397997;19;20364;-80
2022/08/19 01:08:13;;;;;;;19.08;16.10;;;14.90;99.90;;;;;;7396226;19;20022;-80
2022/08/19 01:10:43;;;;;;;20.65;15.93;;;14.90;99.90;;;;;;7396249;19;20017;-80
2022/08/19 01:13:10;;;;;;;21.77;16.20;;;14.90;99.90;;;;;;7398078;19;20007;-80
2022/08/19 01:15:46;;;;;;;21.88;16.70;;;14.90;99.90;;;;;;7393955;19;20015;-80
2022/08/19 01:18:14;;;;;;;25.27;17.40;;;14.90;99.90;;;;;;7397838;19;20007;-80
2022/08/19 01:20:42;;;;;;;21.73;16.35;;;14.90;99.90;;;;;;7399591;19;20007;-80
2022/08/19 01:23:08;;;;;;;19.67;16.20;;;14.90;99.90;;;;;;7397691;19;20010;-80
2022/08/19 01:25:49;;;;;;;21.38;17.52;;;14.90;99.90;;;;;;7397202;19;20019;-80
2022/08/19 01:28:27;;;;;;;22.65;16.85;;;14.80;99.90;;;;;;7395896;19;20006;-80
2022/08/19 01:30:54;;;;;;;18.58;15.45;;;14.80;99.90;;;;;;7397309;19;20010;-80
2022/08/19 01:33:20;;;;;;;16.83;14.93;;;14.90;99.90;;;;;;7395638;19;20018;-80
2022/08/19 01:35:50;;;;;;;20.17;15.48;;;14.90;99.90;;;;;;7395196;19;20022;-81
2022/08/19 01:38:26;;;;;;;18.58;15.38;;;14.90;99.90;;;;;;7397315;19;20023;-80
2022/08/19 01:40:52;;;;;;;19.10;15.70;;;14.80;99.90;;;;;;7396911;19;20006;-80
2022/08/19 01:43:18;;;;;;;22.58;16.17;;;14.80;99.90;;;;;;7395264;19;20018;-80
2022/08/19 01:45:45;;;;;;;21.92;17.13;;;14.80;99.90;;;;;;7395095;19;20014;-80
2022/08/19 01:48:13;;;;;;;20.73;16.83;;;14.70;99.90;;;;;;7396643;19;20003;-80
2022/08/19 01:50:39;;;;;;;23.17;17.83;;;14.80;99.90;;;;;;7396426;19;20019;-80
2022/08/19 01:53:09;;;;;;;30.52;21.58;;;14.80;99.90;;;;;;7394722;19;20014;-80
2022/08/19 01:55:39;;;;;;;25.80;19.42;;;14.80;99.90;;;;;;7396182;19;20038;-80
2022/08/19 01:58:07;;;;;;;24.55;18.88;;;14.80;99.90;;;;;;7396209;19;20492;-79
2022/08/19 02:00:33;;;;;;;25.45;19.73;;;14.80;99.90;;;;;;7396244;19;20479;-80
2022/08/19 02:03:00;;;;;;;26.52;19.05;;;14.80;99.90;;;;;;7396595;19;20034;-80
2022/08/19 02:05:29;;;;;;;25.25;19.08;;;14.80;99.90;;;;;;7395939;19;20011;-80
2022/08/19 02:07:56;;;;;;;26.70;19.85;;;14.80;99.90;;;;;;7395748;19;20014;-80
2022/08/19 02:10:23;;;;;;;29.60;20.15;;;14.80;99.90;;;;;;7395965;19;20074;-79
2022/08/19 02:12:49;;;;;;;29.98;20.73;;;14.80;99.90;;;;;;7395680;19;20018;-80
2022/08/19 02:15:18;;;;;;;26.30;20.17;;;14.80;99.90;;;;;;7392645;19;20475;-79
2022/08/19 02:17:44;;;;;;;26.83;19.63;;;14.80;99.90;;;;;;7394348;19;20010;-80
2022/08/19 02:20:12;;;;;;;26.50;19.65;;;14.90;99.90;;;;;;7397848;19;20376;-80
2022/08/19 02:22:40;;;;;;;28.35;19.52;;;14.90;99.90;;;;;;7393840;19;20463;-79
2022/08/19 02:25:06;;;;;;;24.67;18.63;;;15.00;99.90;;;;;;7394264;19;20010;-80
2022/08/19 02:27:34;;;;;;;25.98;19.13;;;15.00;99.90;;;;;;7393056;19;20010;-80
2022/08/19 02:30:00;;;;;;;29.08;20.20;;;15.00;99.90;;;;;;7395267;19;20007;-80
2022/08/19 02:32:27;;;;;;;29.98;21.05;;;14.90;99.90;;;;;;7395017;19;20082;-80
2022/08/19 02:34:53;;;;;;;32.22;20.83;;;14.90;99.90;;;;;;7395654;19;20017;-80
2022/08/19 02:40:04;;;;;;;28.10;20.42;;;14.90;99.90;;;;;;7394753;19;20018;-79
2022/08/19 02:42:31;;;;;;;37.00;22.63;;;14.90;99.90;;;;;;7395205;19;20010;-80
2022/08/19 02:44:57;;;;;;;34.72;22.52;;;14.80;99.90;;;;;;7393261;19;20484;-80
2022/08/19 02:47:26;;;;;;;29.80;20.50;;;14.90;99.90;;;;;;7393257;19;20019;-80
2022/08/19 02:49:52;;;;;;;32.78;20.30;;;14.80;99.90;;;;;;7394208;19;20014;-79
2022/08/19 02:52:18;;;;;;;32.90;21.13;;;14.80;99.90;;;;;;7394742;19;20044;-79
2022/08/19 02:54:44;;;;;;;37.22;22.60;;;14.80;99.90;;;;;;7392809;19;20483;-79
2022/08/19 02:57:10;;;;;;;37.75;22.58;;;14.80;99.90;;;;;;7393125;19;20082;-79
2022/08/19 02:59:36;;;;;;;29.58;20.27;;;14.80;99.90;;;;;;7392615;19;20010;-79
2022/08/19 03:02:02;;;;;;;29.92;19.15;;;14.70;99.90;;;;;;7392600;19;20539;-80
2022/08/19 03:04:29;;;;;;;29.70;19.20;;;14.80;99.90;;;;;;7394239;19;20010;-80
2022/08/19 03:06:55;;;;;;;32.42;20.70;;;14.70;99.90;;;;;;7392550;19;20011;-80
2022/08/19 03:09:21;;;;;;;28.77;19.55;;;14.70;99.90;;;;;;7392647;19;20006;-80
2022/08/19 03:11:47;;;;;;;31.80;19.85;;;14.70;99.90;;;;;;7392764;19;20011;-79
2022/08/19 03:14:14;;;;;;;44.92;22.65;;;14.60;99.90;;;;;;7393561;19;20393;-80
2022/08/19 03:16:48;;;;;;;39.95;21.75;;;14.60;99.90;;;;;;7392649;19;20479;-79
2022/08/19 03:19:16;;;;;;;30.00;20.00;;;14.70;99.90;;;;;;7393686;19;20518;-80
2022/08/19 03:21:47;;;;;;;27.75;19.35;;;14.70;99.90;;;;;;7391772;19;20018;-80
2022/08/19 03:24:15;;;;;;;32.65;19.70;;;14.70;99.90;;;;;;7394152;19;20094;-80
2022/08/19 03:26:44;;;;;;;34.03;20.20;;;14.70;99.90;;;;;;7393674;19;20010;-80
2022/08/19 03:29:11;;;;;;;41.42;22.70;;;14.60;99.90;;;;;;7391868;19;20011;-79
2022/08/19 03:31:42;;;;;;;30.90;18.75;;;14.60;99.90;;;;;;7393242;19;20048;-80
2022/08/19 03:34:13;;;;;;;26.33;18.60;;;14.60;99.90;;;;;;7393264;19;20010;-80
2022/08/19 03:36:40;;;;;;;32.47;20.30;;;14.50;99.90;;;;;;7390881;19;20479;-79
2022/08/19 03:39:08;;;;;;;27.92;18.27;;;14.50;99.90;;;;;;7393282;19;20337;-79
2022/08/19 03:41:39;;;;;;;32.13;18.30;;;14.50;99.90;;;;;;7393242;19;20456;-79
2022/08/19 03:44:05;;;;;;;31.90;18.02;;;14.50;99.90;;;;;;7393121;19;20015;-79
2022/08/19 03:46:36;;;;;;;28.20;16.88;;;14.50;99.90;;;;;;7391126;19;20014;-80
2022/08/19 03:49:07;;;;;;;25.45;16.85;;;14.50;99.90;;;;;;7390822;19;20010;-80
2022/08/19 03:51:37;;;;;;;27.80;17.20;;;14.50;99.90;;;;;;7393237;19;20018;-80
2022/08/19 03:54:08;;;;;;;26.73;16.95;;;14.50;99.90;;;;;;7392942;19;20094;-79
2022/08/19 03:56:36;;;;;;;27.27;17.10;;;14.50;99.90;;;;;;7391705;19;20010;-79
2022/08/19 03:59:05;;;;;;;19.40;14.68;;;14.50;99.90;;;;;;7390787;19;20049;-79
2022/08/19 04:01:31;;;;;;;24.95;16.58;;;14.50;99.90;;;;;;7393003;19;20011;-80
2022/08/19 04:03:58;;;;;;;25.20;16.58;;;14.50;99.90;;;;;;7392284;19;20471;-79
2022/08/19 04:06:30;;;;;;;28.55;18.33;;;14.60;99.90;;;;;;7392544;19;20018;-80
2022/08/19 04:08:58;;;;;;;24.90;16.80;;;14.60;99.90;;;;;;7392672;19;20015;-80
2022/08/19 04:11:27;;;;;;;24.88;16.08;;;14.60;99.90;;;;;;7392122;19;20015;-80
2022/08/19 04:13:54;;;;;;;23.60;14.90;;;14.60;99.90;;;;;;7392058;19;20011;-80
2022/08/19 04:16:23;;;;;;;21.15;14.80;;;14.80;99.90;;;;;;7391453;19;20023;-80
2022/08/19 04:18:49;;;;;;;17.98;12.18;;;14.90;99.90;;;;;;7393999;19;20058;-79
2022/08/19 04:21:24;;;;;;;19.13;14.30;;;15.30;99.90;;;;;;7390474;19;20014;-80
2022/08/19 04:23:50;;;;;;;21.17;14.02;;;15.40;99.90;;;;;;7390207;19;20034;-80
2022/08/19 04:26:19;;;;;;;14.98;10.38;;;15.40;99.90;;;;;;7392259;19;20011;-80
2022/08/19 04:28:48;;;;;;;10.55;8.38;;;15.30;99.90;;;;;;7388476;19;20015;-79
2022/08/19 04:31:30;;;;;;;11.93;10.35;;;15.30;99.90;;;;;;7398251;19;20014;-80
2022/08/19 04:33:58;;;;;;;11.60;8.27;;;15.60;99.90;;;;;;7399234;19;20341;-80
2022/08/19 04:36:28;;;;;;;13.57;10.88;;;15.50;99.90;;;;;;7397725;19;20002;-80
2022/08/19 04:38:57;;;;;;;10.88;9.32;;;15.60;99.90;;;;;;7399350;19;20014;-80
2022/08/19 04:44:09;;;;;;;12.45;9.98;;;15.70;99.90;;;;;;7398816;19;20038;-80
2022/08/19 04:46:35;;;;;;;14.13;11.40;;;15.80;99.90;;;;;;7398772;19;20006;-79
2022/08/19 04:49:04;;;;;;;14.25;11.57;;;15.90;99.90;;;;;;7398040;19;20487;-79
2022/08/19 04:51:32;;;;;;;16.70;12.07;;;15.80;99.90;;;;;;7398559;19;20022;-80
2022/08/19 04:53:59;;;;;;;17.98;13.30;;;15.70;99.90;;;;;;7397295;19;20665;-79
2022/08/19 04:56:26;;;;;;;20.90;14.68;;;15.50;99.90;;;;;;7395606;19;20022;-80
2022/08/19 04:58:54;;;;;;;19.20;13.68;;;15.30;99.90;;;;;;7398297;19;20014;-80
2022/08/19 05:01:28;;;;;;;21.67;13.98;;;15.20;99.90;;;;;;7398100;19;20018;-79
2022/08/19 05:03:56;;;;;;;22.33;13.27;;;15.10;99.90;;;;;;7398011;19;20021;-80
2022/08/19 05:06:22;;;;;;;19.00;14.15;;;15.00;99.90;;;;;;7398570;19;20010;-80
2022/08/19 05:08:49;;;;;;;18.38;13.25;;;15.00;99.90;;;;;;7398026;19;20022;-80
2022/08/19 05:11:25;;;;;;;25.08;14.70;;;15.00;99.90;;;;;;7397660;19;20031;-79
2022/08/19 05:13:52;;;;;;;20.25;13.75;;;15.00;99.90;;;;;;7396092;19;20010;-79
2022/08/19 05:16:21;;;;;;;24.00;15.10;;;14.90;99.90;;;;;;7395057;19;20019;-79
2022/08/19 05:24:20;;;;;;;23.05;15.02;;;14.90;99.90;;;;;;7397635;19;20373;-79
2022/08/19 05:26:49;;;;;;;22.80;14.68;;;14.90;99.90;;;;;;7395993;19;20010;-79
2022/08/19 05:29:17;;;;;;;24.33;15.82;;;14.90;99.90;;;;;;7397844;19;20534;-79
2022/08/19 05:31:44;;;;;;;22.75;15.77;;;15.00;99.90;;;;;;7396911;19;20014;-79
2022/08/19 05:34:10;;;;;;;25.30;16.17;;;15.00;99.90;;;;;;7397306;19;20514;-79
2022/08/19 05:36:42;;;;;;;21.83;15.32;;;15.10;99.90;;;;;;7394857;19;20006;-79
2022/08/19 05:39:15;;;;;;;28.70;16.85;;;15.20;99.90;;;;;;7397010;19;20497;-79
2022/08/19 05:41:42;;;;;;;27.48;17.50;;;15.30;99.90;;;;;;7395732;19;20034;-79
2022/08/19 05:44:09;;;;;;;13.63;10.05;;;15.30;99.90;;;;;;7396701;19;20033;-80
2022/08/19 05:46:39;;;;;;;10.48;9.23;;;15.30;99.90;;;;;;7395548;19;20527;-80
2022/08/19 05:49:09;;;;;;;20.85;14.48;;;15.70;99.90;;;;;;7396369;19;20021;-79
2022/08/19 05:51:37;;;;;;;21.98;16.15;;;15.90;99.90;;;;;;7396061;19;20015;-79
2022/08/19 05:54:05;;;;;;;21.70;15.52;;;15.90;99.90;;;;;;7394639;19;20010;-80
2022/08/19 05:56:31;;;;;;;10.07;7.60;;;15.90;99.90;;;;;;7393842;19;20015;-79
2022/08/19 05:58:58;;;;;;;6.88;6.18;;;15.90;99.90;;;;;;7395008;19;20018;-80
2022/08/19 06:01:26;;;;;;;20.17;15.32;;;16.10;99.90;;;;;;7396611;19;20017;-80
2022/08/19 06:03:52;;;;;;;22.27;15.40;;;16.30;99.90;;;;;;7396634;19;20014;-79
2022/08/19 06:06:18;;;;;;;9.20;6.85;;;16.30;99.90;;;;;;7394202;19;20475;-79
2022/08/19 06:08:50;;;;;;;19.75;13.73;;;16.30;99.90;;;;;;7396160;19;20039;-79
2022/08/19 06:11:21;;;;;;;14.32;10.95;;;16.30;99.90;;;;;;7394251;19;20568;-79
2022/08/19 06:13:50;;;;;;;23.65;16.05;;;16.30;99.90;;;;;;7395362;19;20010;-79
2022/08/19 06:16:23;;;;;;;22.83;16.55;;;16.40;99.90;;;;;;7395054;19;20074;-79
2022/08/19 06:18:53;;;;;;;23.45;16.73;;;16.40;99.90;;;;;;7399763;19;20031;-79
2022/08/19 06:21:24;;;;;;;23.05;16.35;;;16.50;99.90;;;;;;7395968;19;20026;-79
2022/08/19 06:23:51;;;;;;;21.67;17.23;;;17.00;99.90;;;;;;7395658;19;20027;-80
2022/08/19 06:26:19;;;;;;;22.70;16.30;;;17.10;99.90;;;;;;7395618;19;20108;-80
2022/08/19 06:28:46;;;;;;;18.75;14.23;;;17.00;99.90;;;;;;7391739;19;20029;-80
2022/08/19 06:31:15;;;;;;;20.95;15.40;;;17.00;99.90;;;;;;7395109;19;20006;-80
2022/08/19 06:33:45;;;;;;;23.65;16.02;;;17.00;99.90;;;;;;7395202;19;20014;-81
2022/08/19 06:36:36;;;;;;;10.07;8.23;;;17.00;99.90;;;;;;7395267;19;20010;-80
2022/08/19 06:39:14;;;;;;;22.10;17.83;;;17.10;99.90;;;;;;7395105;19;20010;-80
2022/08/19 06:41:43;;;;;;;21.38;15.93;;;17.20;99.90;;;;;;7394628;19;20017;-80
2022/08/19 06:44:10;;;;;;;21.17;16.50;;;17.30;99.90;;;;;;7394465;19;20019;-80
2022/08/19 06:46:37;;;;;;;20.10;16.50;;;17.20;99.90;;;;;;7393188;19;20010;-80
2022/08/19 06:49:04;;;;;;;24.00;16.73;;;17.30;99.90;;;;;;7392493;19;20072;-80
2022/08/19 06:51:32;;;;;;;21.77;15.98;;;17.30;99.90;;;;;;7394712;19;20015;-80
2022/08/19 06:53:58;;;;;;;22.02;16.25;;;17.30;99.90;;;;;;7391895;19;20498;-80
2022/08/19 06:56:34;;;;;;;20.50;16.33;;;17.30;99.90;;;;;;7392221;19;20013;-80
2022/08/19 06:59:11;;;;;;;20.98;16.85;;;17.30;99.90;;;;;;7394142;19;20010;-80
2022/08/19 07:01:45;;;;;;;20.20;16.35;;;17.40;99.90;;;;;;7392737;19;20027;-80
2022/08/19 07:04:12;;;;;;;20.92;18.05;;;17.40;99.90;;;;;;7394441;19;20046;-80
2022/08/19 07:06:38;;;;;;;19.20;13.93;;;17.50;99.90;;;;;;7392820;19;20014;-80
2022/08/19 07:09:05;;;;;;;11.45;8.88;;;17.60;99.90;;;;;;7394148;19;20014;-80
2022/08/19 07:11:32;;;;;;;16.98;14.55;;;17.70;99.90;;;;;;7393876;19;20040;-80
2022/08/19 07:14:01;;;;;;;18.58;13.77;;;18.00;99.90;;;;;;7393568;19;20025;-80
2022/08/19 07:16:28;;;;;;;19.05;14.05;;;18.30;99.90;;;;;;7393823;19;20058;-79
2022/08/19 07:18:56;;;;;;;5.82;5.05;;;18.50;99.90;;;;;;7393253;19;20006;-79
2022/08/19 07:21:27;;;;;;;7.63;4.57;;;18.70;99.90;;;;;;7392223;19;20535;-80
2022/08/19 07:23:58;;;;;;;6.97;5.57;;;19.00;99.90;;;;;;7394016;19;20014;-80
2022/08/19 07:26:33;;;;;;;7.63;6.93;;;19.40;99.90;;;;;;7393397;19;20041;-79
2022/08/19 07:29:00;;;;;;;7.95;5.60;;;20.20;99.90;;;;;;7391766;19;20014;-80
2022/08/19 07:31:27;;;;;;;3.45;3.15;;;20.80;99.90;;;;;;7393439;19;20011;-79
2022/08/19 07:33:57;;;;;;;6.88;5.22;;;21.40;99.90;;;;;;7393161;19;20011;-80
2022/08/19 07:36:32;;;;;;;12.43;10.07;;;21.80;99.90;;;;;;7392416;19;20014;-80
2022/08/19 07:38:59;;;;;;;2.40;1.95;;;22.40;99.90;;;;;;7393329;19;20074;-80
2022/08/19 07:41:28;;;;;;;8.57;6.68;;;22.90;99.90;;;;;;7392870;19;20014;-79
2022/08/19 07:43:56;;;;;;;8.65;7.03;;;23.50;99.90;;;;;;7392581;19;20014;-79
2022/08/19 07:46:22;;;;;;;12.43;9.88;;;24.10;99.90;;;;;;7392448;19;20086;-80
2022/08/19 07:48:50;;;;;;;10.13;7.13;;;24.50;99.90;;;;;;7392738;19;20014;-80
2022/08/19 07:51:19;;;;;;;10.52;9.10;;;24.80;99.90;;;;;;7391114;19;20498;-80
2022/08/19 07:53:46;;;;;;;5.47;4.35;;;24.80;99.90;;;;;;7392866;19;20025;-80
2022/08/19 07:56:13;;;;;;;13.55;10.82;;;24.80;99.90;;;;;;7392557;19;20022;-80
2022/08/19 07:58:43;;;;;;;6.50;4.93;;;24.80;99.90;;;;;;7392970;19;20086;-80
2022/08/19 08:01:16;;;;;;;12.23;8.65;;;25.00;99.90;;;;;;7392887;19;20017;-80
2022/08/19 08:09:20;;;;;;;3.67;2.92;;;25.30;99.90;;;;;;7399627;19;20435;-81
2022/08/19 08:11:56;;;;;;;5.30;3.17;;;25.60;99.90;;;;;;7399926;19;20006;-79
2022/08/19 08:14:48;;;;;;;9.57;6.60;;;25.60;99.90;;;;;;7398711;19;20014;-80
2022/08/19 08:17:16;;;;;;;3.60;2.30;;;25.90;99.90;;;;;;7400427;19;20014;-79
2022/08/19 08:19:44;;;;;;;7.97;6.82;;;26.00;99.90;;;;;;7400000;19;20031;-80
2022/08/19 08:23:22;;;;;;;2.90;2.33;;;25.90;99.90;;;;;;7400601;19;20026;-79
2022/08/19 08:25:13;;;;;;;3.55;2.30;;;25.80;99.90;;;;;;7399237;19;20030;-79
2022/08/19 08:27:40;;;;;;;8.43;5.15;;;25.70;99.90;;;;;;7398679;19;20014;-79
2022/08/19 08:30:11;;;;;;;3.30;2.10;;;25.70;99.90;;;;;;7399099;19;20019;-80
2022/08/19 08:32:39;;;;;;;11.05;9.05;;;25.90;99.90;;;;;;7398938;19;20115;-80
2022/08/19 08:35:07;;;;;;;3.90;2.78;;;25.90;99.90;;;;;;7399536;19;20010;-80
2022/08/19 08:37:33;;;;;;;6.57;5.13;;;25.80;99.90;;;;;;7396615;19;20551;-79
2022/08/19 08:39:59;;;;;;;11.65;7.97;;;25.30;99.90;;;;;;7398960;19;20015;-79
2022/08/19 08:42:34;;;;;;;3.15;2.63;;;24.90;99.90;;;;;;7399256;19;20479;-79
2022/08/19 08:45:14;;;;;;;8.63;6.78;;;24.70;99.90;;;;;;7399200;19;20010;-79
2022/08/19 08:47:46;;;;;;;11.10;7.68;;;24.60;99.90;;;;;;7398927;19;20006;-79
2022/08/19 08:50:24;;;;;;;3.75;2.58;;;24.40;99.90;;;;;;7398607;19;20029;-79
2022/08/19 08:52:55;;;;;;;5.75;5.15;;;24.40;99.90;;;;;;7398209;19;20356;-79
2022/08/19 08:55:26;;;;;;;12.73;10.18;;;24.30;99.90;;;;;;7397239;19;20018;-80
2022/08/19 08:58:04;;;;;;;5.43;4.10;;;24.20;99.90;;;;;;7396294;19;20010;-79
2022/08/19 09:00:38;;;;;;;3.17;2.85;;;24.20;99.90;;;;;;7398207;19;20033;-79
2022/08/19 09:03:13;;;;;;;4.70;3.78;;;24.30;99.90;;;;;;7396237;19;20006;-79
2022/08/19 09:05:49;;;;;;;11.68;10.02;;;24.30;99.90;;;;;;7398147;19;20015;-79
2022/08/19 09:08:45;;;;;;;4.93;3.53;;;24.40;99.90;;;;;;7397966;19;20489;-80
2022/08/19 09:11:21;;;;;;;12.35;10.75;;;24.40;99.90;;;;;;7396510;19;20066;-79
2022/08/19 09:14:22;;;;;;;12.95;10.52;;;24.50;99.90;;;;;;7397340;19;20018;-79
2022/08/19 09:16:49;;;;;;;6.43;5.32;;;24.50;99.90;;;;;;7399011;19;20081;-80
2022/08/19 09:19:17;;;;;;;3.53;2.70;;;24.60;99.90;;;;;;7397179;19;20011;-80
2022/08/19 09:21:43;;;;;;;3.10;2.75;;;24.60;99.90;;;;;;7396199;19;20433;-79
2022/08/19 09:24:09;;;;;;;11.77;10.35;;;24.70;99.90;;;;;;7396202;19;20015;-80
2022/08/19 09:26:35;;;;;;;10.98;8.70;;;24.80;99.90;;;;;;7397652;19;20024;-79
2022/08/19 09:29:04;;;;;;;4.53;3.97;;;24.90;99.90;;;;;;7395473;19;20007;-79
2022/08/19 09:31:32;;;;;;;8.63;7.18;;;24.90;99.90;;;;;;7395641;19;20018;-80
2022/08/19 09:33:59;;;;;;;6.22;4.03;;;25.00;99.90;;;;;;7398127;19;20531;-79
2022/08/19 09:36:29;;;;;;;5.80;4.50;;;25.10;99.90;;;;;;7394660;19;20353;-79
2022/08/19 09:38:56;;;;;;;5.45;4.82;;;25.20;99.90;;;;;;7397278;19;20015;-80
2022/08/19 09:41:24;;;;;;;8.15;7.10;;;25.20;99.90;;;;;;7397458;19;20011;-80
2022/08/19 09:43:55;;;;;;;2.80;2.50;;;25.20;99.90;;;;;;7396937;19;20087;-80
2022/08/19 09:46:25;;;;;;;5.03;2.80;;;25.20;99.90;;;;;;7397567;19;20035;-79
2022/08/19 09:48:52;;;;;;;4.88;2.40;;;25.20;99.90;;;;;;7395378;19;20046;-79
2022/08/19 09:51:24;;;;;;;9.32;6.40;;;25.20;99.90;;;;;;7396844;19;20015;-80
2022/08/19 09:53:53;;;;;;;7.88;5.22;;;25.20;99.90;;;;;;7396423;19;20011;-80
2022/08/19 09:56:21;;;;;;;5.80;4.03;;;25.40;99.90;;;;;;7396029;19;20018;-80
2022/08/19 09:58:47;;;;;;;3.25;2.95;;;25.40;99.90;;;;;;7394797;19;20027;-80
2022/08/19 10:01:22;;;;;;;6.82;5.68;;;25.40;99.90;;;;;;7396495;19;20018;-79
2022/08/19 10:03:53;;;;;;;7.97;4.85;;;25.50;99.90;;;;;;7396651;19;20027;-80
2022/08/19 10:06:20;;;;;;;3.63;2.40;;;25.50;99.90;;;;;;7396556;19;20492;-80
2022/08/19 10:08:52;;;;;;;3.08;2.53;;;25.60;99.90;;;;;;7396115;19;20010;-79
2022/08/19 10:11:20;;;;;;;6.18;5.60;;;25.70;99.90;;;;;;7396391;19;20023;-79
2022/08/19 10:13:48;;;;;;;8.45;5.55;;;25.80;99.90;;;;;;7393890;19;20015;-79
2022/08/19 10:16:19;;;;;;;3.08;2.30;;;25.70;99.90;;;;;;7398074;19;20014;-79
2022/08/19 10:18:45;;;;;;;4.00;3.00;;;25.70;99.90;;;;;;7395824;19;20021;-80
2022/08/19 10:21:15;;;;;;;6.85;4.60;;;25.80;99.90;;;;;;7394285;19;20006;-79
2022/08/19 10:23:44;;;;;;;4.82;3.80;;;25.90;99.90;;;;;;7395695;19;20624;-79
2022/08/19 10:26:13;;;;;;;7.68;4.03;;;26.00;99.90;;;;;;7394030;19;20031;-79
2022/08/19 10:28:39;;;;;;;8.40;4.57;;;26.20;99.90;;;;;;7393634;19;20069;-79
2022/08/19 10:31:21;;;;;;;3.10;2.33;;;26.20;99.90;;;;;;7395212;19;20479;-80
2022/08/19 10:33:47;;;;;;;4.22;2.72;;;26.30;99.90;;;;;;7393945;19;20018;-79
2022/08/19 10:36:17;;;;;;;3.83;3.08;;;26.40;99.90;;;;;;7394967;19;20041;-79
2022/08/19 10:38:45;;;;;;;4.28;2.63;;;26.40;99.90;;;;;;7395105;19;20014;-80
2022/08/19 10:41:14;;;;;;;6.10;4.68;;;26.10;99.90;;;;;;7394988;19;20022;-80
2022/08/19 10:43:41;;;;;;;5.38;4.85;;;26.20;99.90;;;;;;7393724;19;20016;-79
2022/08/19 10:46:09;;;;;;;5.20;4.65;;;26.10;99.90;;;;;;7395261;19;20491;-79
2022/08/19 10:48:36;;;;;;;3.90;2.88;;;26.20;99.90;;;;;;7394632;19;20015;-80
2022/08/19 10:53:47;;;;;;;4.45;2.78;;;26.20;99.90;;;;;;7394340;19;20015;-80
2022/08/19 10:58:58;;;;;;;3.88;2.85;;;26.30;99.90;;;;;;7394203;19;20511;-81
2022/08/19 11:01:26;;;;;;;4.20;3.05;;;26.40;99.90;;;;;;7394888;19;20037;-81
2022/08/19 11:03:52;;;;;;;5.75;4.57;;;26.50;99.90;;;;;;7394699;19;20019;-81
2022/08/19 11:06:20;;;;;;;5.63;4.70;;;26.40;99.90;;;;;;7394022;19;20442;-81
2022/08/19 11:08:46;;;;;;;3.80;2.55;;;26.30;99.90;;;;;;7394140;19;20360;-81
2022/08/19 11:11:12;;;;;;;3.53;2.42;;;26.30;99.90;;;;;;7392332;19;20011;-81
2022/08/19 11:13:40;;;;;;;3.92;2.90;;;26.40;99.90;;;;;;7394862;19;20053;-81
2022/08/19 11:16:10;;;;;;;4.47;3.38;;;26.30;99.90;;;;;;7393423;19;20077;-81
2022/08/19 11:18:38;;;;;;;4.28;3.03;;;26.10;99.90;;;;;;7393784;19;20023;-80
2022/08/19 11:21:10;;;;;;;2.83;2.30;;;26.00;99.90;;;;;;7394063;19;20025;-81
2022/08/19 11:23:36;;;;;;;5.33;3.60;;;26.10;99.90;;;;;;7392996;19;20022;-81
2022/08/19 11:26:02;;;;;;;4.82;3.63;;;26.10;99.90;;;;;;7393742;19;20033;-80
2022/08/19 11:28:28;;;;;;;5.68;2.97;;;26.30;99.90;;;;;;7392138;19;20010;-80
2022/08/19 11:30:54;;;;;;;3.17;2.38;;;26.50;99.90;;;;;;7392140;19;20017;-81
2022/08/19 11:33:20;;;;;;;2.92;2.53;;;26.60;99.90;;;;;;7393177;19;20021;-80
2022/08/19 11:35:46;;;;;;;3.65;2.72;;;26.50;99.90;;;;;;7392308;19;20006;-80
2022/08/19 11:38:14;;;;;;;3.42;2.70;;;26.40;99.90;;;;;;7394157;19;20042;-80
2022/08/19 11:40:41;;;;;;;3.67;2.67;;;26.40;99.90;;;;;;7391660;19;20078;-81
2022/08/19 11:43:08;;;;;;;3.72;3.28;;;26.70;99.90;;;;;;7392949;19;20408;-81
2022/08/19 11:45:34;;;;;;;3.45;2.30;;;26.70;99.90;;;;;;7391856;19;20022;-80
2022/08/19 11:48:00;;;;;;;2.88;2.50;;;26.70;99.90;;;;;;7392869;19;20360;-80
2022/08/19 11:50:27;;;;;;;2.20;1.98;;;26.50;99.90;;;;;;7392518;19;20020;-80
2022/08/19 11:52:55;;;;;;;2.97;2.72;;;26.40;99.90;;;;;;7393126;19;20011;-81
2022/08/19 11:55:20;;;;;;;3.50;2.90;;;26.30;99.90;;;;;;7393289;19;20075;-81
2022/08/19 11:57:46;;;;;;;4.25;3.85;;;26.20;99.90;;;;;;7391228;19;20082;-81
2022/08/19 12:00:13;;;;;;;2.58;2.30;;;26.00;99.90;;;;;;7391303;19;20360;-81
2022/08/19 12:02:39;;;;;;;3.00;2.20;;;26.00;99.90;;;;;;7391464;19;20026;-80
2022/08/19 12:05:06;;;;;;;3.30;3.00;;;26.30;99.90;;;;;;7390805;19;20038;-81
2022/08/19 12:07:34;;;;;;;3.45;2.70;;;26.60;99.90;;;;;;7392877;19;20045;-81
2022/08/19 12:10:00;;;;;;;2.60;2.40;;;26.80;99.90;;;;;;7392409;19;20007;-80
2022/08/19 12:12:26;;;;;;;4.13;3.55;;;27.10;99.90;;;;;;7391957;19;20494;-80
2022/08/19 12:14:56;;;;;;;5.70;3.65;;;26.90;99.90;;;;;;7389262;19;20011;-80
2022/08/19 12:17:26;;;;;;;5.20;4.32;;;26.70;99.90;;;;;;7390767;19;20018;-80
2022/08/19 12:19:53;;;;;;;2.80;2.60;;;26.70;99.90;;;;;;7390282;19;20070;-80
2022/08/19 12:22:20;;;;;;;2.88;2.30;;;26.90;99.90;;;;;;7392071;19;20348;-80
2022/08/19 12:24:47;;;;;;;2.78;2.53;;;27.10;99.90;;;;;;7391948;19;20403;-81
2022/08/19 12:27:13;;;;;;;2.88;2.60;;;27.20;99.90;;;;;;7391654;19;20025;-80
2022/08/19 12:29:39;;;;;;;5.40;4.90;;;27.30;99.90;;;;;;7391625;19;20018;-80
2022/08/19 12:32:05;;;;;;;6.63;5.68;;;27.30;99.90;;;;;;7390200;19;20025;-80
2022/08/19 12:34:32;;;;;;;5.03;4.50;;;27.40;99.90;;;;;;7391762;19;20006;-80
2022/08/19 12:37:01;;;;;;;6.22;5.07;;;27.50;99.90;;;;;;7390739;19;20007;-80
2022/08/19 12:39:27;;;;;;;5.65;5.15;;;27.40;99.90;;;;;;7390663;19;20014;-80
2022/08/19 12:41:53;;;;;;;5.28;4.22;;;27.20;99.90;;;;;;7390651;19;20393;-80
2022/08/19 12:44:19;;;;;;;3.55;2.90;;;26.90;99.90;;;;;;7392042;19;20002;-80
2022/08/19 12:46:46;;;;;;;4.88;4.38;;;26.80;99.90;;;;;;7391689;19;20007;-81
2022/08/19 12:49:12;;;;;;;4.60;3.20;;;26.70;99.90;;;;;;7391297;19;20539;-81
2022/08/19 12:51:39;;;;;;;4.97;4.53;;;26.60;99.90;;;;;;7392364;19;20398;-81
2022/08/19 12:54:06;;;;;;;5.95;4.63;;;26.40;99.90;;;;;;7396924;19;20006;-81
2022/08/19 12:56:33;;;;;;;4.82;4.25;;;26.20;99.90;;;;;;7397804;19;20010;-80
2022/08/19 12:59:02;;;;;;;5.70;4.40;;;26.10;99.90;;;;;;7398259;19;20014;-80
2022/08/19 13:01:32;;;;;;;6.22;4.82;;;26.00;99.90;;;;;;7398495;19;20035;-81
2022/08/19 13:03:59;;;;;;;6.70;4.70;;;25.70;99.90;;;;;;7398342;19;20023;-81
2022/08/19 13:06:26;;;;;;;5.20;4.70;;;25.60;99.90;;;;;;7398554;19;20493;-81